Anchorage, Kentucky
Current Conditions -  °F | °C
As of 1:53 PM on Friday 21 Nov 2014 (Local Time) from KLOU Reporting Station
Clear Clear  
Wind Chill: 34°   Ceiling: Unl
Heat Index: 38°   Visibility: 10mi
Dew Point: 11°   Wind: 5mph
Humidity: 33%   Direction: 60°ENE
Pressure: 30.48"   Gusts: NA
Location:  38.2621°N, 85.5415°W
Report Text: KLOU 211853Z 06004KT 10SM CLR 03/M12 A3048 RMK AO2 SLP325 T00331117
Loading
Personal Weather Stations






























Interactive Weather Map New forecast layout! Learn more

10-Day Weather Forecast

Advertisements
Track Severe Weather on mobile